LDA170 LIEE-LMML
Flight info
| Callsign | LDA170 |
|---|---|
| Flight time | 0h 51m |
| Altitude | 34000 |
| Route | CAR5N CAR M732 TIVUK DCT SENTI DCT ROBIM M732 GZO DCT |
| Aircraft | A320/M-SDE2E3FGHIJ1RWXY/5555 |
Departure
| Time | 2026-04-29 14:44 |
|---|---|
| Airport | Cagliari Elmas Airport (LIEE) |
Arrival
| Time | 2026-04-29 15:36 |
|---|---|
| Airport | Malta International Airport (LMML) |
| Time | Latitude | Longitude | Altitude | Speed | Heading |
|---|---|---|---|---|---|
| 2026-04-29 14:01 | 39.25328 | 9.05796 | 17 ft | 0 kts | 89° |
| 2026-04-29 14:38 | 39.25327 | 9.05795 | 17 ft | 2 kts | 89° |
| 2026-04-29 14:38 | 39.25326 | 9.05771 | 17 ft | 3 kts | 61° |
| 2026-04-29 14:38 | 39.25312 | 9.05753 | 18 ft | 3 kts | 17° |
| 2026-04-29 14:38 | 39.25293 | 9.05751 | 18 ft | 3 kts | 334° |
| 2026-04-29 14:39 | 39.25276 | 9.05763 | 19 ft | 3 kts | 329° |
| 2026-04-29 14:39 | 39.25260 | 9.05775 | 19 ft | 3 kts | 329° |
| 2026-04-29 14:39 | 39.25244 | 9.05788 | 20 ft | 3 kts | 329° |
| 2026-04-29 14:39 | 39.25228 | 9.05800 | 19 ft | 3 kts | 329° |
| 2026-04-29 14:40 | 39.25219 | 9.05807 | 21 ft | 0 kts | 319° |
| 2026-04-29 14:41 | 39.25239 | 9.05785 | 20 ft | 8 kts | 319° |
| 2026-04-29 14:41 | 39.25309 | 9.05707 | 17 ft | 18 kts | 319° |
| 2026-04-29 14:41 | 39.25384 | 9.05560 | 19 ft | 22 kts | 285° |
| 2026-04-29 14:42 | 39.25454 | 9.05354 | 18 ft | 29 kts | 313° |
| 2026-04-29 14:42 | 39.25621 | 9.05149 | 18 ft | 37 kts | 317° |
| 2026-04-29 14:42 | 39.25821 | 9.04900 | 19 ft | 44 kts | 312° |
| 2026-04-29 14:42 | 39.26057 | 9.04638 | 21 ft | 42 kts | 315° |
| 2026-04-29 14:43 | 39.26123 | 9.04446 | 19 ft | 14 kts | 258° |
| 2026-04-29 14:43 | 39.26067 | 9.04386 | 19 ft | 9 kts | 176° |
| 2026-04-29 14:43 | 39.26009 | 9.04437 | 18 ft | 18 kts | 135° |
| 2026-04-29 14:43 | 39.25732 | 9.04754 | 19 ft | 88 kts | 136° |
| 2026-04-29 14:44 | 39.25109 | 9.05463 | 85 ft | 145 kts | 142° |
| 2026-04-29 14:44 | 39.24296 | 9.06329 | 577 ft | 173 kts | 144° |
| 2026-04-29 14:44 | 39.23272 | 9.07364 | 1222 ft | 191 kts | 140° |
| 2026-04-29 14:44 | 39.22255 | 9.08480 | 2228 ft | 193 kts | 138° |
| 2026-04-29 14:45 | 39.21267 | 9.09666 | 3110 ft | 195 kts | 138° |
| 2026-04-29 14:45 | 39.20283 | 9.10892 | 3946 ft | 198 kts | 138° |
| 2026-04-29 14:45 | 39.19288 | 9.12142 | 4758 ft | 202 kts | 136° |
| 2026-04-29 14:45 | 39.18511 | 9.13669 | 5463 ft | 212 kts | 122° |
| 2026-04-29 14:46 | 39.17780 | 9.15465 | 5942 ft | 237 kts | 120° |
| 2026-04-29 14:46 | 39.16997 | 9.17455 | 6559 ft | 252 kts | 119° |
| 2026-04-29 14:46 | 39.16213 | 9.19449 | 7646 ft | 250 kts | 119° |
| 2026-04-29 14:46 | 39.15415 | 9.21471 | 8533 ft | 256 kts | 119° |
| 2026-04-29 14:47 | 39.14594 | 9.23522 | 9441 ft | 260 kts | 120° |
| 2026-04-29 14:47 | 39.13749 | 9.25604 | 10286 ft | 264 kts | 120° |
| 2026-04-29 14:47 | 39.12883 | 9.27716 | 11090 ft | 269 kts | 120° |
| 2026-04-29 14:47 | 39.12299 | 9.29128 | 11639 ft | 270 kts | 120° |
| 2026-04-29 14:48 | 39.11091 | 9.32026 | 12527 ft | 286 kts | 120° |
| 2026-04-29 14:48 | 39.10112 | 9.34356 | 12960 ft | 305 kts | 120° |
| 2026-04-29 14:48 | 39.09084 | 9.36797 | 13429 ft | 323 kts | 120° |
| 2026-04-29 14:48 | 39.07987 | 9.39397 | 13925 ft | 338 kts | 120° |
| 2026-04-29 14:49 | 39.06838 | 9.42116 | 14401 ft | 353 kts | 120° |
| 2026-04-29 14:49 | 39.05658 | 9.44911 | 15109 ft | 358 kts | 120° |
| 2026-04-29 14:49 | 39.04462 | 9.47745 | 15863 ft | 362 kts | 120° |
| 2026-04-29 14:49 | 39.03254 | 9.50604 | 16596 ft | 367 kts | 120° |
| 2026-04-29 14:50 | 39.02024 | 9.53509 | 17324 ft | 371 kts | 120° |
| 2026-04-29 14:50 | 39.00782 | 9.56439 | 18051 ft | 375 kts | 120° |
| 2026-04-29 14:50 | 38.99523 | 9.59401 | 18691 ft | 380 kts | 120° |
| 2026-04-29 14:50 | 38.98248 | 9.62397 | 19313 ft | 383 kts | 120° |
| 2026-04-29 14:51 | 38.96963 | 9.65415 | 19909 ft | 387 kts | 120° |
| 2026-04-29 14:51 | 38.95660 | 9.68472 | 20518 ft | 391 kts | 120° |
| 2026-04-29 14:51 | 38.94347 | 9.71546 | 21117 ft | 395 kts | 120° |
| 2026-04-29 14:51 | 38.93018 | 9.74655 | 21689 ft | 399 kts | 120° |
| 2026-04-29 14:52 | 38.91676 | 9.77790 | 22253 ft | 403 kts | 120° |
| 2026-04-29 14:52 | 38.90319 | 9.80957 | 22818 ft | 407 kts | 120° |
| 2026-04-29 14:52 | 38.88951 | 9.84148 | 23370 ft | 410 kts | 120° |
| 2026-04-29 14:52 | 38.87586 | 9.87328 | 23860 ft | 414 kts | 121° |
| 2026-04-29 14:53 | 38.86189 | 9.90574 | 24330 ft | 416 kts | 121° |
| 2026-04-29 14:53 | 38.84621 | 9.93706 | 24795 ft | 418 kts | 127° |
| 2026-04-29 14:53 | 38.82896 | 9.96725 | 25260 ft | 421 kts | 129° |
| 2026-04-29 14:53 | 38.81110 | 9.99712 | 25715 ft | 423 kts | 130° |
| 2026-04-29 14:54 | 38.79290 | 10.02693 | 26157 ft | 426 kts | 130° |
| 2026-04-29 14:54 | 38.77445 | 10.05687 | 26593 ft | 429 kts | 130° |
| 2026-04-29 14:54 | 38.75581 | 10.08695 | 27028 ft | 432 kts | 130° |
| 2026-04-29 14:54 | 38.73698 | 10.11726 | 27449 ft | 435 kts | 131° |
| 2026-04-29 14:55 | 38.71803 | 10.14773 | 27865 ft | 439 kts | 131° |
| 2026-04-29 14:55 | 38.69893 | 10.17839 | 28266 ft | 442 kts | 131° |
| 2026-04-29 14:55 | 38.67972 | 10.20922 | 28685 ft | 445 kts | 131° |
| 2026-04-29 14:55 | 38.66032 | 10.24033 | 29091 ft | 447 kts | 131° |
| 2026-04-29 14:56 | 38.64087 | 10.27152 | 29476 ft | 451 kts | 131° |
| 2026-04-29 14:56 | 38.62150 | 10.30256 | 29850 ft | 454 kts | 131° |
| 2026-04-29 14:56 | 38.60170 | 10.33428 | 30212 ft | 456 kts | 131° |
| 2026-04-29 14:56 | 38.58182 | 10.36614 | 30507 ft | 460 kts | 131° |
| 2026-04-29 14:57 | 38.56176 | 10.39827 | 30789 ft | 463 kts | 131° |
| 2026-04-29 14:57 | 38.54160 | 10.43056 | 31082 ft | 466 kts | 131° |
| 2026-04-29 14:57 | 38.52131 | 10.46301 | 31358 ft | 470 kts | 132° |
| 2026-04-29 14:57 | 38.50084 | 10.49574 | 31630 ft | 474 kts | 132° |
| 2026-04-29 14:58 | 38.48020 | 10.52866 | 31889 ft | 477 kts | 132° |
| 2026-04-29 14:58 | 38.45938 | 10.56185 | 32152 ft | 481 kts | 133° |
| 2026-04-29 14:58 | 38.43839 | 10.59527 | 32408 ft | 484 kts | 133° |
| 2026-04-29 14:58 | 38.41726 | 10.62889 | 32714 ft | 486 kts | 133° |
| 2026-04-29 14:59 | 38.39607 | 10.66258 | 33059 ft | 487 kts | 133° |
| 2026-04-29 14:59 | 38.37508 | 10.69593 | 33388 ft | 489 kts | 133° |
| 2026-04-29 14:59 | 38.35372 | 10.72983 | 33708 ft | 488 kts | 134° |
| 2026-04-29 14:59 | 38.33260 | 10.76336 | 33862 ft | 485 kts | 134° |
| 2026-04-29 15:00 | 38.31129 | 10.79706 | 33920 ft | 492 kts | 134° |
| 2026-04-29 15:00 | 38.26746 | 10.86603 | 33962 ft | 509 kts | 134° |
| 2026-04-29 15:01 | 38.22219 | 10.93709 | 33964 ft | 525 kts | 134° |
| 2026-04-29 15:01 | 38.17602 | 11.00949 | 33968 ft | 531 kts | 134° |
| 2026-04-29 15:02 | 38.12988 | 11.08196 | 33970 ft | 524 kts | 134° |
| 2026-04-29 15:02 | 38.08396 | 11.15390 | 33975 ft | 525 kts | 134° |
| 2026-04-29 15:03 | 38.03776 | 11.22603 | 33974 ft | 527 kts | 134° |
| 2026-04-29 15:03 | 37.99143 | 11.29820 | 33978 ft | 526 kts | 134° |
| 2026-04-29 15:04 | 37.95298 | 11.35800 | 33976 ft | 526 kts | 134° |
| 2026-04-29 15:04 | 37.90662 | 11.42993 | 33978 ft | 528 kts | 134° |
| 2026-04-29 15:05 | 37.86011 | 11.50193 | 33979 ft | 529 kts | 134° |
| 2026-04-29 15:05 | 37.81353 | 11.57390 | 33979 ft | 528 kts | 134° |
| 2026-04-29 15:06 | 37.76685 | 11.64582 | 33995 ft | 529 kts | 134° |
| 2026-04-29 15:06 | 37.72006 | 11.71775 | 33981 ft | 529 kts | 134° |
| 2026-04-29 15:07 | 37.67364 | 11.78899 | 33989 ft | 528 kts | 134° |
| 2026-04-29 15:07 | 37.62684 | 11.86063 | 33988 ft | 529 kts | 134° |
| 2026-04-29 15:08 | 37.57995 | 11.93223 | 33992 ft | 530 kts | 134° |
| 2026-04-29 15:08 | 37.53301 | 12.00377 | 33990 ft | 529 kts | 134° |
| 2026-04-29 15:09 | 37.48608 | 12.07515 | 33991 ft | 529 kts | 134° |
| 2026-04-29 15:09 | 37.43899 | 12.14660 | 34000 ft | 531 kts | 134° |
| 2026-04-29 15:10 | 37.39180 | 12.21806 | 33993 ft | 531 kts | 135° |
| 2026-04-29 15:10 | 37.34490 | 12.28896 | 34003 ft | 530 kts | 135° |
| 2026-04-29 15:11 | 37.29768 | 12.36016 | 34008 ft | 531 kts | 135° |
| 2026-04-29 15:11 | 37.25032 | 12.43138 | 34005 ft | 531 kts | 135° |
| 2026-04-29 15:12 | 37.20291 | 12.50254 | 34006 ft | 531 kts | 135° |
| 2026-04-29 15:12 | 37.15549 | 12.57358 | 34004 ft | 531 kts | 135° |
| 2026-04-29 15:13 | 37.10803 | 12.64449 | 34004 ft | 531 kts | 135° |
| 2026-04-29 15:13 | 37.06064 | 12.71516 | 34004 ft | 532 kts | 135° |
| 2026-04-29 15:14 | 37.01295 | 12.78611 | 34003 ft | 532 kts | 135° |
| 2026-04-29 15:14 | 36.96527 | 12.85688 | 34004 ft | 532 kts | 135° |
| 2026-04-29 15:15 | 36.91779 | 12.92718 | 34006 ft | 533 kts | 135° |
| 2026-04-29 15:15 | 36.87024 | 12.99761 | 33987 ft | 516 kts | 135° |
| 2026-04-29 15:15 | 36.84749 | 13.03141 | 33611 ft | 502 kts | 135° |
| 2026-04-29 15:16 | 36.82508 | 13.06457 | 32756 ft | 497 kts | 135° |
| 2026-04-29 15:16 | 36.80291 | 13.09721 | 31876 ft | 490 kts | 135° |
| 2026-04-29 15:16 | 36.78099 | 13.12939 | 31002 ft | 483 kts | 135° |
| 2026-04-29 15:16 | 36.75936 | 13.16110 | 30181 ft | 477 kts | 135° |
| 2026-04-29 15:17 | 36.73800 | 13.19238 | 29270 ft | 470 kts | 135° |
| 2026-04-29 15:17 | 36.71696 | 13.22315 | 28439 ft | 461 kts | 135° |
| 2026-04-29 15:17 | 36.69637 | 13.25325 | 27555 ft | 451 kts | 134° |
| 2026-04-29 15:17 | 36.67614 | 13.28279 | 26484 ft | 443 kts | 134° |
| 2026-04-29 15:18 | 36.65626 | 13.31176 | 25489 ft | 435 kts | 134° |
| 2026-04-29 15:18 | 36.63705 | 13.33971 | 24551 ft | 426 kts | 133° |
| 2026-04-29 15:18 | 36.61792 | 13.36753 | 23648 ft | 417 kts | 133° |
| 2026-04-29 15:18 | 36.59925 | 13.39472 | 22608 ft | 408 kts | 133° |
| 2026-04-29 15:19 | 36.58104 | 13.42132 | 21598 ft | 400 kts | 133° |
| 2026-04-29 15:19 | 36.56317 | 13.44745 | 20615 ft | 392 kts | 133° |
| 2026-04-29 15:19 | 36.54564 | 13.47308 | 19673 ft | 385 kts | 133° |
| 2026-04-29 15:19 | 36.52844 | 13.49821 | 18757 ft | 378 kts | 132° |
| 2026-04-29 15:20 | 36.51196 | 13.52277 | 17810 ft | 371 kts | 131° |
| 2026-04-29 15:20 | 36.49573 | 13.54741 | 16827 ft | 365 kts | 131° |
| 2026-04-29 15:20 | 36.47990 | 13.57163 | 15866 ft | 359 kts | 131° |
| 2026-04-29 15:20 | 36.46431 | 13.59556 | 14917 ft | 353 kts | 131° |
| 2026-04-29 15:21 | 36.44901 | 13.61908 | 14038 ft | 347 kts | 131° |
| 2026-04-29 15:21 | 36.43409 | 13.64229 | 13086 ft | 342 kts | 127° |
| 2026-04-29 15:21 | 36.42410 | 13.66876 | 12152 ft | 339 kts | 104° |
| 2026-04-29 15:21 | 36.42319 | 13.69769 | 11487 ft | 337 kts | 81° |
| 2026-04-29 15:22 | 36.43134 | 13.72489 | 10896 ft | 337 kts | 58° |
| 2026-04-29 15:22 | 36.44307 | 13.74984 | 10325 ft | 334 kts | 70° |
| 2026-04-29 15:22 | 36.44713 | 13.77774 | 9829 ft | 326 kts | 94° |
| 2026-04-29 15:22 | 36.44204 | 13.80446 | 9276 ft | 316 kts | 118° |
| 2026-04-29 15:23 | 36.42916 | 13.82590 | 8722 ft | 307 kts | 137° |
| 2026-04-29 15:23 | 36.41332 | 13.84381 | 8338 ft | 308 kts | 142° |
| 2026-04-29 15:23 | 36.39683 | 13.86019 | 8147 ft | 299 kts | 144° |
| 2026-04-29 15:23 | 36.37971 | 13.87630 | 8065 ft | 314 kts | 144° |
| 2026-04-29 15:24 | 36.36300 | 13.89340 | 8025 ft | 312 kts | 140° |
| 2026-04-29 15:24 | 36.34677 | 13.91135 | 7983 ft | 312 kts | 140° |
| 2026-04-29 15:24 | 36.33065 | 13.92939 | 7945 ft | 312 kts | 140° |
| 2026-04-29 15:24 | 36.31481 | 13.94721 | 7908 ft | 311 kts | 139° |
| 2026-04-29 15:25 | 36.29874 | 13.96528 | 7784 ft | 314 kts | 140° |
| 2026-04-29 15:25 | 36.28267 | 13.98326 | 7395 ft | 308 kts | 139° |
| 2026-04-29 15:25 | 36.26685 | 14.00101 | 7042 ft | 305 kts | 139° |
| 2026-04-29 15:25 | 36.25118 | 14.01857 | 6682 ft | 303 kts | 139° |
| 2026-04-29 15:26 | 36.23559 | 14.03603 | 6321 ft | 299 kts | 139° |
| 2026-04-29 15:26 | 36.22022 | 14.05322 | 5946 ft | 297 kts | 139° |
| 2026-04-29 15:26 | 36.20493 | 14.07029 | 5580 ft | 295 kts | 138° |
| 2026-04-29 15:26 | 36.18989 | 14.08711 | 5205 ft | 291 kts | 138° |
| 2026-04-29 15:27 | 36.17484 | 14.10390 | 4837 ft | 291 kts | 138° |
| 2026-04-29 15:27 | 36.15973 | 14.12057 | 4317 ft | 290 kts | 139° |
| 2026-04-29 15:27 | 36.14428 | 14.13627 | 3703 ft | 283 kts | 141° |
| 2026-04-29 15:27 | 36.12895 | 14.15124 | 3611 ft | 282 kts | 141° |
| 2026-04-29 15:28 | 36.11342 | 14.16631 | 3455 ft | 284 kts | 141° |
| 2026-04-29 15:28 | 36.10329 | 14.17616 | 3310 ft | 271 kts | 141° |
| 2026-04-29 15:28 | 36.08541 | 14.19475 | 3110 ft | 240 kts | 138° |
| 2026-04-29 15:28 | 36.07346 | 14.20833 | 3072 ft | 225 kts | 136° |
| 2026-04-29 15:29 | 36.06268 | 14.22117 | 3063 ft | 205 kts | 135° |
| 2026-04-29 15:29 | 36.04397 | 14.24442 | 3033 ft | 185 kts | 134° |
| 2026-04-29 15:30 | 36.02563 | 14.26776 | 3021 ft | 187 kts | 133° |
| 2026-04-29 15:30 | 36.01657 | 14.27936 | 3051 ft | 188 kts | 134° |
| 2026-04-29 15:30 | 36.00760 | 14.29089 | 3012 ft | 187 kts | 133° |
| 2026-04-29 15:30 | 35.99851 | 14.30241 | 2996 ft | 187 kts | 134° |
| 2026-04-29 15:31 | 35.98936 | 14.31389 | 2991 ft | 188 kts | 134° |
| 2026-04-29 15:31 | 35.98007 | 14.32544 | 2989 ft | 189 kts | 134° |
| 2026-04-29 15:31 | 35.97089 | 14.33672 | 3053 ft | 180 kts | 135° |
| 2026-04-29 15:31 | 35.96240 | 14.34721 | 3065 ft | 167 kts | 134° |
| 2026-04-29 15:32 | 35.95410 | 14.35744 | 3008 ft | 171 kts | 134° |
| 2026-04-29 15:32 | 35.94575 | 14.36785 | 2784 ft | 168 kts | 134° |
| 2026-04-29 15:32 | 35.93773 | 14.37777 | 2518 ft | 162 kts | 134° |
| 2026-04-29 15:32 | 35.92990 | 14.38751 | 2323 ft | 157 kts | 134° |
| 2026-04-29 15:33 | 35.92254 | 14.39674 | 2144 ft | 147 kts | 134° |
| 2026-04-29 15:33 | 35.91540 | 14.40561 | 1952 ft | 146 kts | 134° |
| 2026-04-29 15:33 | 35.90817 | 14.41447 | 1761 ft | 146 kts | 134° |
| 2026-04-29 15:33 | 35.90104 | 14.42337 | 1569 ft | 142 kts | 133° |
| 2026-04-29 15:34 | 35.89445 | 14.43171 | 1355 ft | 130 kts | 134° |
| 2026-04-29 15:34 | 35.88813 | 14.43953 | 1146 ft | 129 kts | 135° |
| 2026-04-29 15:34 | 35.88162 | 14.44716 | 991 ft | 130 kts | 132° |
| 2026-04-29 15:34 | 35.87526 | 14.45489 | 832 ft | 127 kts | 129° |
| 2026-04-29 15:35 | 35.86928 | 14.46250 | 656 ft | 122 kts | 127° |
| 2026-04-29 15:35 | 35.86343 | 14.47009 | 473 ft | 123 kts | 127° |
| 2026-04-29 15:35 | 35.85732 | 14.47778 | 304 ft | 127 kts | 131° |
| 2026-04-29 15:35 | 35.85194 | 14.48456 | 262 ft | 80 kts | 137° |
| 2026-04-29 15:36 | 35.84927 | 14.48787 | 257 ft | 34 kts | 135° |
| 2026-04-29 15:36 | 35.84800 | 14.48940 | 255 ft | 18 kts | 106° |
| 2026-04-29 15:36 | 35.84836 | 14.48986 | 255 ft | 5 kts | 352° |
| 2026-04-29 15:36 | 35.84852 | 14.48980 | 255 ft | 0 kts | 343° |
| 2026-04-29 15:37 | 35.84855 | 14.48979 | 255 ft | 3 kts | 343° |
| 2026-04-29 15:37 | 35.84901 | 14.48978 | 255 ft | 10 kts | 23° |
| 2026-04-29 15:38 | 35.84924 | 14.49075 | 255 ft | 16 kts | 114° |
| 2026-04-29 15:38 | 35.84936 | 14.49223 | 255 ft | 18 kts | 88° |
| 2026-04-29 15:38 | 35.84908 | 14.49317 | 254 ft | 6 kts | 76° |
| 2026-04-29 15:38 | 35.84937 | 14.49337 | 254 ft | 5 kts | 6° |
| 2026-04-29 15:39 | 35.84959 | 14.49338 | 254 ft | 1 kts | 1° |
| 2026-04-29 15:39 | 35.84968 | 14.49338 | 254 ft | 0 kts | 1° |